sensor_id;sensor_type;location;lat;lon;timestamp;P1;P2;P0
82667;PMS5003;72691;51.374;-0.176;2023-09-19T00:01:19;2;2;
82667;PMS5003;72691;51.374;-0.176;2023-09-19T00:03:44;2;2;
82667;PMS5003;72691;51.374;-0.176;2023-09-19T00:06:10;3;1;
82667;PMS5003;72691;51.374;-0.176;2023-09-19T00:08:35;6;4;
82667;PMS5003;72691;51.374;-0.176;2023-09-19T00:11:00;2;2;
82667;PMS5003;72691;51.374;-0.176;2023-09-19T00:13:26;4;2;
82667;PMS5003;72691;51.374;-0.176;2023-09-19T00:15:51;2;2;
82667;PMS5003;72691;51.374;-0.176;2023-09-19T00:18:17;3;2;
82667;PMS5003;72691;51.374;-0.176;2023-09-19T00:20:42;2;2;
82667;PMS5003;72691;51.374;-0.176;2023-09-19T00:23:08;3;3;
82667;PMS5003;72691;51.374;-0.176;2023-09-19T00:25:33;4;2;
82667;PMS5003;72691;51.374;-0.176;2023-09-19T00:27:59;5;3;
82667;PMS5003;72691;51.374;-0.176;2023-09-19T00:30:24;2;2;
82667;PMS5003;72691;51.374;-0.176;2023-09-19T00:32:50;4;4;
82667;PMS5003;72691;51.374;-0.176;2023-09-19T00:35:15;3;2;
82667;PMS5003;72691;51.374;-0.176;2023-09-19T00:37:40;2;2;
82667;PMS5003;72691;51.374;-0.176;2023-09-19T00:40:06;2;2;
82667;PMS5003;72691;51.374;-0.176;2023-09-19T00:42:31;2;2;
82667;PMS5003;72691;51.374;-0.176;2023-09-19T00:44:57;3;3;
82667;PMS5003;72691;51.374;-0.176;2023-09-19T00:47:22;3;3;
82667;PMS5003;72691;51.374;-0.176;2023-09-19T00:49:48;3;3;
82667;PMS5003;72691;51.374;-0.176;2023-09-19T00:52:13;3;2;
82667;PMS5003;72691;51.374;-0.176;2023-09-19T00:54:39;4;3;
82667;PMS5003;72691;51.374;-0.176;2023-09-19T00:57:04;3;2;
82667;PMS5003;72691;51.374;-0.176;2023-09-19T00:59:29;3;3;
82667;PMS5003;72691;51.374;-0.176;2023-09-19T01:01:55;4;4;
82667;PMS5003;72691;51.374;-0.176;2023-09-19T01:04:20;4;3;
82667;PMS5003;72691;51.374;-0.176;2023-09-19T01:06:46;3;3;
82667;PMS5003;72691;51.374;-0.176;2023-09-19T01:09:11;4;4;
82667;PMS5003;72691;51.374;-0.176;2023-09-19T01:11:37;3;3;
82667;PMS5003;72691;51.374;-0.176;2023-09-19T01:14:03;4;4;
82667;PMS5003;72691;51.374;-0.176;2023-09-19T01:16:35;2;2;
82667;PMS5003;72691;51.374;-0.176;2023-09-19T01:18:55;2;2;
82667;PMS5003;72691;51.374;-0.176;2023-09-19T01:21:20;2;1;
82667;PMS5003;72691;51.374;-0.176;2023-09-19T01:23:53;4;3;
82667;PMS5003;72691;51.374;-0.176;2023-09-19T01:28:41;3;3;
82667;PMS5003;72691;51.374;-0.176;2023-09-19T01:30:59;7;6;
82667;PMS5003;72691;51.374;-0.176;2023-09-19T01:33:25;3;2;
82667;PMS5003;72691;51.374;-0.176;2023-09-19T01:35:50;4;3;
82667;PMS5003;72691;51.374;-0.176;2023-09-19T01:38:15;3;3;
82667;PMS5003;72691;51.374;-0.176;2023-09-19T01:40:41;3;3;
82667;PMS5003;72691;51.374;-0.176;2023-09-19T01:43:08;3;3;
82667;PMS5003;72691;51.374;-0.176;2023-09-19T01:45:33;3;3;
82667;PMS5003;72691;51.374;-0.176;2023-09-19T01:47:59;5;3;
82667;PMS5003;72691;51.374;-0.176;2023-09-19T01:50:29;3;3;
82667;PMS5003;72691;51.374;-0.176;2023-09-19T01:52:49;2;2;
82667;PMS5003;72691;51.374;-0.176;2023-09-19T01:55:14;2;2;
82667;PMS5003;72691;51.374;-0.176;2023-09-19T01:57:40;2;2;
82667;PMS5003;72691;51.374;-0.176;2023-09-19T02:00:06;3;3;
82667;PMS5003;72691;51.374;-0.176;2023-09-19T02:02:30;6;4;
82667;PMS5003;72691;51.374;-0.176;2023-09-19T02:04:55;4;3;
82667;PMS5003;72691;51.374;-0.176;2023-09-19T02:07:21;4;3;
82667;PMS5003;72691;51.374;-0.176;2023-09-19T02:09:46;3;3;
82667;PMS5003;72691;51.374;-0.176;2023-09-19T02:12:11;2;2;
82667;PMS5003;72691;51.374;-0.176;2023-09-19T02:14:37;3;3;
82667;PMS5003;72691;51.374;-0.176;2023-09-19T02:17:03;4;4;
82667;PMS5003;72691;51.374;-0.176;2023-09-19T02:19:28;4;4;
82667;PMS5003;72691;51.374;-0.176;2023-09-19T02:21:53;3;3;
82667;PMS5003;72691;51.374;-0.176;2023-09-19T02:24:18;3;3;
82667;PMS5003;72691;51.374;-0.176;2023-09-19T02:26:44;6;4;
82667;PMS5003;72691;51.374;-0.176;2023-09-19T02:29:09;3;2;
82667;PMS5003;72691;51.374;-0.176;2023-09-19T02:31:35;3;2;
82667;PMS5003;72691;51.374;-0.176;2023-09-19T02:34:00;2;2;
82667;PMS5003;72691;51.374;-0.176;2023-09-19T02:36:25;3;2;
82667;PMS5003;72691;51.374;-0.176;2023-09-19T02:38:51;3;2;
82667;PMS5003;72691;51.374;-0.176;2023-09-19T02:41:16;4;2;
82667;PMS5003;72691;51.374;-0.176;2023-09-19T02:43:42;2;1;
82667;PMS5003;72691;51.374;-0.176;2023-09-19T02:46:07;4;3;
82667;PMS5003;72691;51.374;-0.176;2023-09-19T02:48:33;4;3;
82667;PMS5003;72691;51.374;-0.176;2023-09-19T02:50:58;3;3;
82667;PMS5003;72691;51.374;-0.176;2023-09-19T02:53:24;3;3;
82667;PMS5003;72691;51.374;-0.176;2023-09-19T02:55:49;3;3;
82667;PMS5003;72691;51.374;-0.176;2023-09-19T02:58:14;4;4;
82667;PMS5003;72691;51.374;-0.176;2023-09-19T03:00:40;4;3;
82667;PMS5003;72691;51.374;-0.176;2023-09-19T03:03:05;2;2;
82667;PMS5003;72691;51.374;-0.176;2023-09-19T03:05:31;3;2;
82667;PMS5003;72691;51.374;-0.176;2023-09-19T03:07:56;3;3;
82667;PMS5003;72691;51.374;-0.176;2023-09-19T03:10:22;2;2;
82667;PMS5003;72691;51.374;-0.176;2023-09-19T03:12:47;3;3;
82667;PMS5003;72691;51.374;-0.176;2023-09-19T03:15:13;3;2;
82667;PMS5003;72691;51.374;-0.176;2023-09-19T03:17:38;2;2;
82667;PMS5003;72691;51.374;-0.176;2023-09-19T03:20:03;2;1;
82667;PMS5003;72691;51.374;-0.176;2023-09-19T03:22:28;3;3;
82667;PMS5003;72691;51.374;-0.176;2023-09-19T03:24:54;4;3;
82667;PMS5003;72691;51.374;-0.176;2023-09-19T03:27:19;4;4;
82667;PMS5003;72691;51.374;-0.176;2023-09-19T03:29:45;5;5;
82667;PMS5003;72691;51.374;-0.176;2023-09-19T03:32:11;3;2;
82667;PMS5003;72691;51.374;-0.176;2023-09-19T03:34:36;4;3;
82667;PMS5003;72691;51.374;-0.176;2023-09-19T03:37:02;3;3;
82667;PMS5003;72691;51.374;-0.176;2023-09-19T03:39:27;4;2;
82667;PMS5003;72691;51.374;-0.176;2023-09-19T03:41:52;5;4;
82667;PMS5003;72691;51.374;-0.176;2023-09-19T03:44:18;3;3;
82667;PMS5003;72691;51.374;-0.176;2023-09-19T03:46:43;2;2;
82667;PMS5003;72691;51.374;-0.176;2023-09-19T03:49:09;4;4;
82667;PMS5003;72691;51.374;-0.176;2023-09-19T03:51:34;5;5;
82667;PMS5003;72691;51.374;-0.176;2023-09-19T03:53:59;2;2;
82667;PMS5003;72691;51.374;-0.176;2023-09-19T03:56:25;3;3;
82667;PMS5003;72691;51.374;-0.176;2023-09-19T03:58:50;1;1;
82667;PMS5003;72691;51.374;-0.176;2023-09-19T04:01:16;3;2;
82667;PMS5003;72691;51.374;-0.176;2023-09-19T04:03:41;2;2;
82667;PMS5003;72691;51.374;-0.176;2023-09-19T04:06:06;3;2;
82667;PMS5003;72691;51.374;-0.176;2023-09-19T04:08:32;4;2;
82667;PMS5003;72691;51.374;-0.176;2023-09-19T04:10:57;3;3;
82667;PMS5003;72691;51.374;-0.176;2023-09-19T04:13:22;3;3;
82667;PMS5003;72691;51.374;-0.176;2023-09-19T04:15:48;1;1;
82667;PMS5003;72691;51.374;-0.176;2023-09-19T04:18:13;5;3;
82667;PMS5003;72691;51.374;-0.176;2023-09-19T04:20:38;2;2;
82667;PMS5003;72691;51.374;-0.176;2023-09-19T04:23:03;3;3;
82667;PMS5003;72691;51.374;-0.176;2023-09-19T04:25:29;4;4;
82667;PMS5003;72691;51.374;-0.176;2023-09-19T04:27:54;2;2;
82667;PMS5003;72691;51.374;-0.176;2023-09-19T04:30:19;3;2;
82667;PMS5003;72691;51.374;-0.176;2023-09-19T04:32:45;3;2;
82667;PMS5003;72691;51.374;-0.176;2023-09-19T04:35:10;4;4;
82667;PMS5003;72691;51.374;-0.176;2023-09-19T04:37:36;2;2;
82667;PMS5003;72691;51.374;-0.176;2023-09-19T04:40:01;3;3;
82667;PMS5003;72691;51.374;-0.176;2023-09-19T04:42:26;2;2;
82667;PMS5003;72691;51.374;-0.176;2023-09-19T04:44:51;3;2;
82667;PMS5003;72691;51.374;-0.176;2023-09-19T04:47:17;0;0;
82667;PMS5003;72691;51.374;-0.176;2023-09-19T04:49:42;3;3;
82667;PMS5003;72691;51.374;-0.176;2023-09-19T04:52:08;1;1;
82667;PMS5003;72691;51.374;-0.176;2023-09-19T04:54:33;2;2;
82667;PMS5003;72691;51.374;-0.176;2023-09-19T04:56:58;3;2;
82667;PMS5003;72691;51.374;-0.176;2023-09-19T04:59:24;4;3;
82667;PMS5003;72691;51.374;-0.176;2023-09-19T05:01:50;5;5;
82667;PMS5003;72691;51.374;-0.176;2023-09-19T05:04:15;1;1;
82667;PMS5003;72691;51.374;-0.176;2023-09-19T05:06:41;3;3;
82667;PMS5003;72691;51.374;-0.176;2023-09-19T05:09:06;5;3;
82667;PMS5003;72691;51.374;-0.176;2023-09-19T05:11:31;2;2;
82667;PMS5003;72691;51.374;-0.176;2023-09-19T05:13:57;3;3;
82667;PMS5003;72691;51.374;-0.176;2023-09-19T05:16:22;2;2;
82667;PMS5003;72691;51.374;-0.176;2023-09-19T05:18:48;2;2;
82667;PMS5003;72691;51.374;-0.176;2023-09-19T05:21:13;5;4;
82667;PMS5003;72691;51.374;-0.176;2023-09-19T05:23:38;4;4;
82667;PMS5003;72691;51.374;-0.176;2023-09-19T05:26:04;3;3;
82667;PMS5003;72691;51.374;-0.176;2023-09-19T05:28:29;3;3;
82667;PMS5003;72691;51.374;-0.176;2023-09-19T05:30:55;4;4;
82667;PMS5003;72691;51.374;-0.176;2023-09-19T05:33:20;4;3;
82667;PMS5003;72691;51.374;-0.176;2023-09-19T05:35:45;5;4;
82667;PMS5003;72691;51.374;-0.176;2023-09-19T05:38:10;5;4;
82667;PMS5003;72691;51.374;-0.176;2023-09-19T05:40:36;4;4;
82667;PMS5003;72691;51.374;-0.176;2023-09-19T05:43:01;5;4;
82667;PMS5003;72691;51.374;-0.176;2023-09-19T05:45:27;4;2;
82667;PMS5003;72691;51.374;-0.176;2023-09-19T05:47:52;3;3;
82667;PMS5003;72691;51.374;-0.176;2023-09-19T05:50:17;4;4;
82667;PMS5003;72691;51.374;-0.176;2023-09-19T05:52:42;4;3;
82667;PMS5003;72691;51.374;-0.176;2023-09-19T05:55:08;4;3;
82667;PMS5003;72691;51.374;-0.176;2023-09-19T05:57:33;1;1;
82667;PMS5003;72691;51.374;-0.176;2023-09-19T05:59:58;4;4;
82667;PMS5003;72691;51.374;-0.176;2023-09-19T06:02:24;3;2;
82667;PMS5003;72691;51.374;-0.176;2023-09-19T06:04:49;3;3;
82667;PMS5003;72691;51.374;-0.176;2023-09-19T06:07:14;3;3;
82667;PMS5003;72691;51.374;-0.176;2023-09-19T06:09:40;2;2;
82667;PMS5003;72691;51.374;-0.176;2023-09-19T06:12:06;4;3;
82667;PMS5003;72691;51.374;-0.176;2023-09-19T06:14:31;1;1;
82667;PMS5003;72691;51.374;-0.176;2023-09-19T06:16:56;3;2;
82667;PMS5003;72691;51.374;-0.176;2023-09-19T06:19:21;3;3;
82667;PMS5003;72691;51.374;-0.176;2023-09-19T06:21:47;3;3;
82667;PMS5003;72691;51.374;-0.176;2023-09-19T06:24:12;2;1;
82667;PMS5003;72691;51.374;-0.176;2023-09-19T06:26:38;1;1;
82667;PMS5003;72691;51.374;-0.176;2023-09-19T06:29:03;1;1;
82667;PMS5003;72691;51.374;-0.176;2023-09-19T06:31:28;2;2;
82667;PMS5003;72691;51.374;-0.176;2023-09-19T06:33:54;4;2;
82667;PMS5003;72691;51.374;-0.176;2023-09-19T06:36:19;1;1;
82667;PMS5003;72691;51.374;-0.176;2023-09-19T06:38:44;2;2;
82667;PMS5003;72691;51.374;-0.176;2023-09-19T06:41:10;0;0;
82667;PMS5003;72691;51.374;-0.176;2023-09-19T06:43:35;2;2;
82667;PMS5003;72691;51.374;-0.176;2023-09-19T06:46:01;1;1;
82667;PMS5003;72691;51.374;-0.176;2023-09-19T06:48:26;1;1;
82667;PMS5003;72691;51.374;-0.176;2023-09-19T06:50:52;1;1;
82667;PMS5003;72691;51.374;-0.176;2023-09-19T06:53:17;2;2;
82667;PMS5003;72691;51.374;-0.176;2023-09-19T06:55:42;1;1;
82667;PMS5003;72691;51.374;-0.176;2023-09-19T06:58:08;2;2;
82667;PMS5003;72691;51.374;-0.176;2023-09-19T07:00:33;1;1;
82667;PMS5003;72691;51.374;-0.176;2023-09-19T07:02:59;2;2;
82667;PMS5003;72691;51.374;-0.176;2023-09-19T07:05:24;3;2;
82667;PMS5003;72691;51.374;-0.176;2023-09-19T07:07:50;1;1;
82667;PMS5003;72691;51.374;-0.176;2023-09-19T07:10:15;2;2;
82667;PMS5003;72691;51.374;-0.176;2023-09-19T07:12:40;2;2;
82667;PMS5003;72691;51.374;-0.176;2023-09-19T07:15:06;3;3;
82667;PMS5003;72691;51.374;-0.176;2023-09-19T07:17:31;3;3;
82667;PMS5003;72691;51.374;-0.176;2023-09-19T07:19:57;2;2;
82667;PMS5003;72691;51.374;-0.176;2023-09-19T07:22:22;2;2;
82667;PMS5003;72691;51.374;-0.176;2023-09-19T07:24:48;3;2;
82667;PMS5003;72691;51.374;-0.176;2023-09-19T07:27:13;4;4;
82667;PMS5003;72691;51.374;-0.176;2023-09-19T07:29:38;3;3;
82667;PMS5003;72691;51.374;-0.176;2023-09-19T07:32:04;4;4;
82667;PMS5003;72691;51.374;-0.176;2023-09-19T07:34:29;4;3;
82667;PMS5003;72691;51.374;-0.176;2023-09-19T07:36:54;1;1;
82667;PMS5003;72691;51.374;-0.176;2023-09-19T07:39:20;4;4;
82667;PMS5003;72691;51.374;-0.176;2023-09-19T07:41:45;5;4;
82667;PMS5003;72691;51.374;-0.176;2023-09-19T07:44:10;2;2;
82667;PMS5003;72691;51.374;-0.176;2023-09-19T07:46:36;2;2;
82667;PMS5003;72691;51.374;-0.176;2023-09-19T07:49:01;3;3;
82667;PMS5003;72691;51.374;-0.176;2023-09-19T07:51:27;3;3;
82667;PMS5003;72691;51.374;-0.176;2023-09-19T07:53:52;3;3;
82667;PMS5003;72691;51.374;-0.176;2023-09-19T07:56:17;4;4;
82667;PMS5003;72691;51.374;-0.176;2023-09-19T07:58:43;5;4;
82667;PMS5003;72691;51.374;-0.176;2023-09-19T08:01:09;5;5;
82667;PMS5003;72691;51.374;-0.176;2023-09-19T08:03:33;4;3;
82667;PMS5003;72691;51.374;-0.176;2023-09-19T08:05:58;7;6;
82667;PMS5003;72691;51.374;-0.176;2023-09-19T08:08:24;4;4;
82667;PMS5003;72691;51.374;-0.176;2023-09-19T08:10:52;3;3;
82667;PMS5003;72691;51.374;-0.176;2023-09-19T08:13:14;5;5;
82667;PMS5003;72691;51.374;-0.176;2023-09-19T08:15:42;3;3;
82667;PMS5003;72691;51.374;-0.176;2023-09-19T08:18:05;3;3;
82667;PMS5003;72691;51.374;-0.176;2023-09-19T08:20:30;5;5;
82667;PMS5003;72691;51.374;-0.176;2023-09-19T08:22:56;5;4;
82667;PMS5003;72691;51.374;-0.176;2023-09-19T08:25:21;6;6;
82667;PMS5003;72691;51.374;-0.176;2023-09-19T08:27:46;5;5;
82667;PMS5003;72691;51.374;-0.176;2023-09-19T08:30:12;5;5;
82667;PMS5003;72691;51.374;-0.176;2023-09-19T08:32:37;7;6;
82667;PMS5003;72691;51.374;-0.176;2023-09-19T08:35:03;7;7;
82667;PMS5003;72691;51.374;-0.176;2023-09-19T08:37:28;7;7;
82667;PMS5003;72691;51.374;-0.176;2023-09-19T08:39:53;6;5;
82667;PMS5003;72691;51.374;-0.176;2023-09-19T08:42:18;6;5;
82667;PMS5003;72691;51.374;-0.176;2023-09-19T08:44:43;7;6;
82667;PMS5003;72691;51.374;-0.176;2023-09-19T08:47:09;7;6;
82667;PMS5003;72691;51.374;-0.176;2023-09-19T08:49:36;6;6;
82667;PMS5003;72691;51.374;-0.176;2023-09-19T08:52:01;4;4;
82667;PMS5003;72691;51.374;-0.176;2023-09-19T08:54:25;7;7;
82667;PMS5003;72691;51.374;-0.176;2023-09-19T08:56:50;7;6;
82667;PMS5003;72691;51.374;-0.176;2023-09-19T08:59:15;9;9;
82667;PMS5003;72691;51.374;-0.176;2023-09-19T09:01:41;7;6;
82667;PMS5003;72691;51.374;-0.176;2023-09-19T09:04:07;7;7;
82667;PMS5003;72691;51.374;-0.176;2023-09-19T09:06:31;6;5;
82667;PMS5003;72691;51.374;-0.176;2023-09-19T09:08:57;8;7;
82667;PMS5003;72691;51.374;-0.176;2023-09-19T09:11:22;9;9;
82667;PMS5003;72691;51.374;-0.176;2023-09-19T09:13:48;9;7;
82667;PMS5003;72691;51.374;-0.176;2023-09-19T09:16:13;8;8;
82667;PMS5003;72691;51.374;-0.176;2023-09-19T09:18:38;6;6;
82667;PMS5003;72691;51.374;-0.176;2023-09-19T09:21:03;6;6;
82667;PMS5003;72691;51.374;-0.176;2023-09-19T09:23:29;7;7;
82667;PMS5003;72691;51.374;-0.176;2023-09-19T09:25:54;9;8;
82667;PMS5003;72691;51.374;-0.176;2023-09-19T09:28:20;9;8;
82667;PMS5003;72691;51.374;-0.176;2023-09-19T09:30:44;10;8;
82667;PMS5003;72691;51.374;-0.176;2023-09-19T09:33:10;8;8;
82667;PMS5003;72691;51.374;-0.176;2023-09-19T09:35:35;8;7;
82667;PMS5003;72691;51.374;-0.176;2023-09-19T09:38:01;5;5;
82667;PMS5003;72691;51.374;-0.176;2023-09-19T09:40:27;7;7;
82667;PMS5003;72691;51.374;-0.176;2023-09-19T09:42:52;8;8;
82667;PMS5003;72691;51.374;-0.176;2023-09-19T09:45:18;9;8;
82667;PMS5003;72691;51.374;-0.176;2023-09-19T09:47:44;10;9;
82667;PMS5003;72691;51.374;-0.176;2023-09-19T09:50:08;6;6;
82667;PMS5003;72691;51.374;-0.176;2023-09-19T09:54:59;6;6;
82667;PMS5003;72691;51.374;-0.176;2023-09-19T09:57:24;8;8;
82667;PMS5003;72691;51.374;-0.176;2023-09-19T09:59:50;8;8;
82667;PMS5003;72691;51.374;-0.176;2023-09-19T10:02:15;8;8;
82667;PMS5003;72691;51.374;-0.176;2023-09-19T10:04:40;12;10;
82667;PMS5003;72691;51.374;-0.176;2023-09-19T10:07:06;9;8;
82667;PMS5003;72691;51.374;-0.176;2023-09-19T10:12:02;8;8;
82667;PMS5003;72691;51.374;-0.176;2023-09-19T10:14:24;12;12;
82667;PMS5003;72691;51.374;-0.176;2023-09-19T10:16:48;12;11;
82667;PMS5003;72691;51.374;-0.176;2023-09-19T10:19:15;13;11;
82667;PMS5003;72691;51.374;-0.176;2023-09-19T10:21:39;15;13;
82667;PMS5003;72691;51.374;-0.176;2023-09-19T10:24:04;10;10;
82667;PMS5003;72691;51.374;-0.176;2023-09-19T10:26:30;11;10;
82667;PMS5003;72691;51.374;-0.176;2023-09-19T10:28:55;9;9;
82667;PMS5003;72691;51.374;-0.176;2023-09-19T10:31:20;11;11;
82667;PMS5003;72691;51.374;-0.176;2023-09-19T10:33:45;9;9;
82667;PMS5003;72691;51.374;-0.176;2023-09-19T10:36:10;12;11;
82667;PMS5003;72691;51.374;-0.176;2023-09-19T10:38:36;11;11;
82667;PMS5003;72691;51.374;-0.176;2023-09-19T10:41:01;9;9;
82667;PMS5003;72691;51.374;-0.176;2023-09-19T10:43:29;9;8;
82667;PMS5003;72691;51.374;-0.176;2023-09-19T10:45:52;10;9;
82667;PMS5003;72691;51.374;-0.176;2023-09-19T10:48:18;9;9;
82667;PMS5003;72691;51.374;-0.176;2023-09-19T10:50:44;9;9;
82667;PMS5003;72691;51.374;-0.176;2023-09-19T10:53:08;13;12;
82667;PMS5003;72691;51.374;-0.176;2023-09-19T10:55:34;11;9;
82667;PMS5003;72691;51.374;-0.176;2023-09-19T10:57:59;12;11;
82667;PMS5003;72691;51.374;-0.176;2023-09-19T11:00:24;10;9;
82667;PMS5003;72691;51.374;-0.176;2023-09-19T11:05:15;9;9;
82667;PMS5003;72691;51.374;-0.176;2023-09-19T11:10:06;10;10;
82667;PMS5003;72691;51.374;-0.176;2023-09-19T11:14:57;7;7;
82667;PMS5003;72691;51.374;-0.176;2023-09-19T11:22:16;10;9;
82667;PMS5003;72691;51.374;-0.176;2023-09-19T11:24:41;11;10;
82667;PMS5003;72691;51.374;-0.176;2023-09-19T11:27:11;8;8;
82667;PMS5003;72691;51.374;-0.176;2023-09-19T11:29:32;10;10;
82667;PMS5003;72691;51.374;-0.176;2023-09-19T11:31:57;12;11;
82667;PMS5003;72691;51.374;-0.176;2023-09-19T11:36:48;12;12;
82667;PMS5003;72691;51.374;-0.176;2023-09-19T11:41:39;7;7;
82667;PMS5003;72691;51.374;-0.176;2023-09-19T11:46:29;9;9;
82667;PMS5003;72691;51.374;-0.176;2023-09-19T11:48:55;11;8;
82667;PMS5003;72691;51.374;-0.176;2023-09-19T11:51:21;7;7;
82667;PMS5003;72691;51.374;-0.176;2023-09-19T11:53:46;13;11;
82667;PMS5003;72691;51.374;-0.176;2023-09-19T11:56:10;9;9;
82667;PMS5003;72691;51.374;-0.176;2023-09-19T11:58:37;10;10;
82667;PMS5003;72691;51.374;-0.176;2023-09-19T12:01:01;5;5;
82667;PMS5003;72691;51.374;-0.176;2023-09-19T12:03:28;4;4;
82667;PMS5003;72691;51.374;-0.176;2023-09-19T12:05:52;6;6;
82667;PMS5003;72691;51.374;-0.176;2023-09-19T12:08:18;8;7;
82667;PMS5003;72691;51.374;-0.176;2023-09-19T12:10:45;8;7;
82667;PMS5003;72691;51.374;-0.176;2023-09-19T12:13:08;7;7;
82667;PMS5003;72691;51.374;-0.176;2023-09-19T12:15:34;10;10;
82667;PMS5003;72691;51.374;-0.176;2023-09-19T12:17:59;9;9;
82667;PMS5003;72691;51.374;-0.176;2023-09-19T12:20:24;8;8;
82667;PMS5003;72691;51.374;-0.176;2023-09-19T12:22:50;7;7;
82667;PMS5003;72691;51.374;-0.176;2023-09-19T12:25:15;9;8;
82667;PMS5003;72691;51.374;-0.176;2023-09-19T12:27:42;11;11;
82667;PMS5003;72691;51.374;-0.176;2023-09-19T12:30:06;9;9;
82667;PMS5003;72691;51.374;-0.176;2023-09-19T12:32:35;8;8;
82667;PMS5003;72691;51.374;-0.176;2023-09-19T12:34:57;9;9;
82667;PMS5003;72691;51.374;-0.176;2023-09-19T12:37:22;8;7;
82667;PMS5003;72691;51.374;-0.176;2023-09-19T12:39:48;8;7;
82667;PMS5003;72691;51.374;-0.176;2023-09-19T12:42:13;8;8;
82667;PMS5003;72691;51.374;-0.176;2023-09-19T12:44:39;6;5;
82667;PMS5003;72691;51.374;-0.176;2023-09-19T12:47:08;9;8;
82667;PMS5003;72691;51.374;-0.176;2023-09-19T12:49:29;7;7;
82667;PMS5003;72691;51.374;-0.176;2023-09-19T12:51:55;10;8;
82667;PMS5003;72691;51.374;-0.176;2023-09-19T12:54:20;9;8;
82667;PMS5003;72691;51.374;-0.176;2023-09-19T12:56:45;11;10;
82667;PMS5003;72691;51.374;-0.176;2023-09-19T12:59:11;8;7;
82667;PMS5003;72691;51.374;-0.176;2023-09-19T13:01:36;6;6;
82667;PMS5003;72691;51.374;-0.176;2023-09-19T13:09:07;11;10;
82667;PMS5003;72691;51.374;-0.176;2023-09-19T13:11:18;8;7;
82667;PMS5003;72691;51.374;-0.176;2023-09-19T13:13:44;9;8;
82667;PMS5003;72691;51.374;-0.176;2023-09-19T13:16:09;7;7;
82667;PMS5003;72691;51.374;-0.176;2023-09-19T13:18:43;7;7;
82667;PMS5003;72691;51.374;-0.176;2023-09-19T13:21:05;6;6;
82667;PMS5003;72691;51.374;-0.176;2023-09-19T13:23:26;8;8;
82667;PMS5003;72691;51.374;-0.176;2023-09-19T13:25:50;9;8;
82667;PMS5003;72691;51.374;-0.176;2023-09-19T13:28:15;7;7;
82667;PMS5003;72691;51.374;-0.176;2023-09-19T13:30:41;8;7;
82667;PMS5003;72691;51.374;-0.176;2023-09-19T13:33:08;9;9;
82667;PMS5003;72691;51.374;-0.176;2023-09-19T13:35:31;9;8;
82667;PMS5003;72691;51.374;-0.176;2023-09-19T13:37:57;8;8;
82667;PMS5003;72691;51.374;-0.176;2023-09-19T13:40:22;10;10;
82667;PMS5003;72691;51.374;-0.176;2023-09-19T13:42:48;9;9;
82667;PMS5003;72691;51.374;-0.176;2023-09-19T13:45:13;8;8;
82667;PMS5003;72691;51.374;-0.176;2023-09-19T13:47:38;10;9;
82667;PMS5003;72691;51.374;-0.176;2023-09-19T13:50:04;12;12;
82667;PMS5003;72691;51.374;-0.176;2023-09-19T13:52:29;11;11;
82667;PMS5003;72691;51.374;-0.176;2023-09-19T13:54:54;9;7;
82667;PMS5003;72691;51.374;-0.176;2023-09-19T13:57:20;11;10;
82667;PMS5003;72691;51.374;-0.176;2023-09-19T13:59:45;8;8;
82667;PMS5003;72691;51.374;-0.176;2023-09-19T14:02:11;6;6;
82667;PMS5003;72691;51.374;-0.176;2023-09-19T14:04:36;9;9;
82667;PMS5003;72691;51.374;-0.176;2023-09-19T14:07:01;7;7;
82667;PMS5003;72691;51.374;-0.176;2023-09-19T14:09:26;7;7;
82667;PMS5003;72691;51.374;-0.176;2023-09-19T14:11:52;6;6;
82667;PMS5003;72691;51.374;-0.176;2023-09-19T14:14:17;7;6;
82667;PMS5003;72691;51.374;-0.176;2023-09-19T14:16:42;6;4;
82667;PMS5003;72691;51.374;-0.176;2023-09-19T14:19:08;8;6;
82667;PMS5003;72691;51.374;-0.176;2023-09-19T14:21:33;8;7;
82667;PMS5003;72691;51.374;-0.176;2023-09-19T14:23:59;8;8;
82667;PMS5003;72691;51.374;-0.176;2023-09-19T14:26:24;5;5;
82667;PMS5003;72691;51.374;-0.176;2023-09-19T14:28:49;6;5;
82667;PMS5003;72691;51.374;-0.176;2023-09-19T14:31:15;6;6;
82667;PMS5003;72691;51.374;-0.176;2023-09-19T14:33:40;7;6;
82667;PMS5003;72691;51.374;-0.176;2023-09-19T14:36:06;5;5;
82667;PMS5003;72691;51.374;-0.176;2023-09-19T14:38:31;7;6;
82667;PMS5003;72691;51.374;-0.176;2023-09-19T14:41:00;7;6;
82667;PMS5003;72691;51.374;-0.176;2023-09-19T14:43:21;8;7;
82667;PMS5003;72691;51.374;-0.176;2023-09-19T14:45:47;8;8;
82667;PMS5003;72691;51.374;-0.176;2023-09-19T14:48:12;6;5;
82667;PMS5003;72691;51.374;-0.176;2023-09-19T14:50:37;7;7;
82667;PMS5003;72691;51.374;-0.176;2023-09-19T14:53:03;8;8;
82667;PMS5003;72691;51.374;-0.176;2023-09-19T14:55:28;7;7;
82667;PMS5003;72691;51.374;-0.176;2023-09-19T14:57:53;7;7;
82667;PMS5003;72691;51.374;-0.176;2023-09-19T15:00:19;7;7;
82667;PMS5003;72691;51.374;-0.176;2023-09-19T15:02:44;10;8;
82667;PMS5003;72691;51.374;-0.176;2023-09-19T15:05:09;4;4;
82667;PMS5003;72691;51.374;-0.176;2023-09-19T15:07:35;7;7;
82667;PMS5003;72691;51.374;-0.176;2023-09-19T15:10:00;5;4;
82667;PMS5003;72691;51.374;-0.176;2023-09-19T15:12:25;4;4;
82667;PMS5003;72691;51.374;-0.176;2023-09-19T15:14:51;6;4;
82667;PMS5003;72691;51.374;-0.176;2023-09-19T15:17:16;4;3;
82667;PMS5003;72691;51.374;-0.176;2023-09-19T15:19:41;4;4;
82667;PMS5003;72691;51.374;-0.176;2023-09-19T15:22:07;6;5;
82667;PMS5003;72691;51.374;-0.176;2023-09-19T15:24:32;3;3;
82667;PMS5003;72691;51.374;-0.176;2023-09-19T15:26:57;4;4;
82667;PMS5003;72691;51.374;-0.176;2023-09-19T15:29:23;3;3;
82667;PMS5003;72691;51.374;-0.176;2023-09-19T15:31:49;7;6;
82667;PMS5003;72691;51.374;-0.176;2023-09-19T15:34:14;5;5;
82667;PMS5003;72691;51.374;-0.176;2023-09-19T15:36:39;3;3;
82667;PMS5003;72691;51.374;-0.176;2023-09-19T15:39:05;4;4;
82667;PMS5003;72691;51.374;-0.176;2023-09-19T15:41:30;3;3;
82667;PMS5003;72691;51.374;-0.176;2023-09-19T15:43:56;4;3;
82667;PMS5003;72691;51.374;-0.176;2023-09-19T15:46:21;4;3;
82667;PMS5003;72691;51.374;-0.176;2023-09-19T15:48:46;4;4;
82667;PMS5003;72691;51.374;-0.176;2023-09-19T15:51:11;4;4;
82667;PMS5003;72691;51.374;-0.176;2023-09-19T15:53:41;3;3;
82667;PMS5003;72691;51.374;-0.176;2023-09-19T15:56:05;3;3;
82667;PMS5003;72691;51.374;-0.176;2023-09-19T15:58:27;3;3;
82667;PMS5003;72691;51.374;-0.176;2023-09-19T16:00:53;6;5;
82667;PMS5003;72691;51.374;-0.176;2023-09-19T16:03:18;5;4;
82667;PMS5003;72691;51.374;-0.176;2023-09-19T16:05:44;4;4;
82667;PMS5003;72691;51.374;-0.176;2023-09-19T16:08:09;5;3;
82667;PMS5003;72691;51.374;-0.176;2023-09-19T16:10:35;4;3;
82667;PMS5003;72691;51.374;-0.176;2023-09-19T16:13:00;4;3;
82667;PMS5003;72691;51.374;-0.176;2023-09-19T16:15:25;7;6;
82667;PMS5003;72691;51.374;-0.176;2023-09-19T16:17:51;6;6;
82667;PMS5003;72691;51.374;-0.176;2023-09-19T16:20:16;7;5;
82667;PMS5003;72691;51.374;-0.176;2023-09-19T16:22:41;7;7;
82667;PMS5003;72691;51.374;-0.176;2023-09-19T16:25:07;6;6;
82667;PMS5003;72691;51.374;-0.176;2023-09-19T16:27:32;8;7;
82667;PMS5003;72691;51.374;-0.176;2023-09-19T16:29:57;9;9;
82667;PMS5003;72691;51.374;-0.176;2023-09-19T16:32:23;8;7;
82667;PMS5003;72691;51.374;-0.176;2023-09-19T16:34:48;5;5;
82667;PMS5003;72691;51.374;-0.176;2023-09-19T16:37:13;8;7;
82667;PMS5003;72691;51.374;-0.176;2023-09-19T16:39:39;5;5;
82667;PMS5003;72691;51.374;-0.176;2023-09-19T16:42:04;9;7;
82667;PMS5003;72691;51.374;-0.176;2023-09-19T16:44:31;9;8;
82667;PMS5003;72691;51.374;-0.176;2023-09-19T16:46:55;7;7;
82667;PMS5003;72691;51.374;-0.176;2023-09-19T16:49:20;6;4;